KBUF/BUF METAR and TAF weather

Enter ICAO airport designator
Station Type Date Time Source
KBUF METAR 2019/06/17 11:54 UTC NOAA

KBUF 171154Z 06007KT 10SM BKN110 BKN250 14/11 A3000 RMK AO2 SLP160 70005 T01440111 10144 20111 53012


Station Type Date Time Source
KBUF Decoded METAR 2019/06/17 11:54 UTC NOAA

GREATER BUFFALO INTERNATIONAL AIRPORT , NY, United States (KBUF) 42-56N 078-44W 225M
Jun 17, 2019 - 07:54 AM EDT / 2019.06.17 1154 UTC
Wind: from the ENE (060 degrees) at 8 MPH (7 KT):0
Visibility: 10 mile(s):0
Sky conditions: mostly cloudy
Temperature: 57.9 F (14.4 C)
Dew Point: 52.0 F (11.1 C)
Relative Humidity: 80%
Pressure (altimeter): 30 in. Hg (1015 hPa)
Pressure tendency: 0.04 inches (1.2 hPa) higher than three hours ago
ob: KBUF 171154Z 06007KT 10SM BKN110 BKN250 14/11 A3000 RMK AO2 SLP160 70005 T01440111 10144 20111 53012
cycle: 12

Station Type Date Time Source
KBUF TAF 2019/06/17 12:22 UTC NOAA

TAF KBUF 171120Z 1712/1812 12005KT P6SM BKN100
FM171600 07007KT P6SM BKN090
FM180200 06004KT P6SM BKN060

Example: see airport list